sensor_id;sensor_type;location;lat;lon;timestamp;temperature;humidity
10384;DHT22;5238;43.508;4.980;2022-12-11T00:01:31;3.80;91.30
10384;DHT22;5238;43.508;4.980;2022-12-11T00:04:01;3.80;91.30
10384;DHT22;5238;43.508;4.980;2022-12-11T00:06:30;3.80;91.30
10384;DHT22;5238;43.508;4.980;2022-12-11T00:09:00;3.80;91.30
10384;DHT22;5238;43.508;4.980;2022-12-11T00:11:28;3.80;91.30
10384;DHT22;5238;43.508;4.980;2022-12-11T00:14:01;3.80;91.30
10384;DHT22;5238;43.508;4.980;2022-12-11T00:16:29;3.70;91.30
10384;DHT22;5238;43.508;4.980;2022-12-11T00:18:57;3.70;91.30
10384;DHT22;5238;43.508;4.980;2022-12-11T00:21:26;3.70;91.30
10384;DHT22;5238;43.508;4.980;2022-12-11T00:24:01;3.70;91.30
10384;DHT22;5238;43.508;4.980;2022-12-11T00:26:29;3.70;91.30
10384;DHT22;5238;43.508;4.980;2022-12-11T00:29:02;3.70;91.30
10384;DHT22;5238;43.508;4.980;2022-12-11T00:31:38;3.70;91.30
10384;DHT22;5238;43.508;4.980;2022-12-11T00:34:08;3.70;91.30
10384;DHT22;5238;43.508;4.980;2022-12-11T00:36:42;3.70;91.30
10384;DHT22;5238;43.508;4.980;2022-12-11T00:39:12;3.60;91.30
10384;DHT22;5238;43.508;4.980;2022-12-11T00:41:58;3.60;91.30
10384;DHT22;5238;43.508;4.980;2022-12-11T00:44:30;3.60;91.30
10384;DHT22;5238;43.508;4.980;2022-12-11T00:46:58;3.60;91.30
10384;DHT22;5238;43.508;4.980;2022-12-11T00:49:26;3.60;91.30
10384;DHT22;5238;43.508;4.980;2022-12-11T00:51:54;3.60;91.30
10384;DHT22;5238;43.508;4.980;2022-12-11T00:54:25;3.50;91.30
10384;DHT22;5238;43.508;4.980;2022-12-11T00:57:02;3.50;91.30
10384;DHT22;5238;43.508;4.980;2022-12-11T00:59:29;3.50;91.30
10384;DHT22;5238;43.508;4.980;2022-12-11T01:02:07;3.50;91.30
10384;DHT22;5238;43.508;4.980;2022-12-11T01:04:36;3.40;91.30
10384;DHT22;5238;43.508;4.980;2022-12-11T01:07:17;3.40;91.30
10384;DHT22;5238;43.508;4.980;2022-12-11T01:09:47;3.40;91.30
10384;DHT22;5238;43.508;4.980;2022-12-11T01:12:37;3.40;91.30
10384;DHT22;5238;43.508;4.980;2022-12-11T01:15:06;3.40;91.30
10384;DHT22;5238;43.508;4.980;2022-12-11T01:17:35;3.30;91.30
10384;DHT22;5238;43.508;4.980;2022-12-11T01:20:11;3.30;91.30
10384;DHT22;5238;43.508;4.980;2022-12-11T01:22:54;3.30;91.30
10384;DHT22;5238;43.508;4.980;2022-12-11T01:25:26;3.30;91.30
10384;DHT22;5238;43.508;4.980;2022-12-11T01:28:09;3.30;91.30
10384;DHT22;5238;43.508;4.980;2022-12-11T01:30:45;3.30;91.30
10384;DHT22;5238;43.508;4.980;2022-12-11T01:33:13;3.30;91.30
10384;DHT22;5238;43.508;4.980;2022-12-11T01:35:42;3.20;91.30
10384;DHT22;5238;43.508;4.980;2022-12-11T01:38:26;3.20;91.30
10384;DHT22;5238;43.508;4.980;2022-12-11T01:41:02;3.20;91.30
10384;DHT22;5238;43.508;4.980;2022-12-11T01:43:33;3.20;91.30
10384;DHT22;5238;43.508;4.980;2022-12-11T01:46:06;3.20;91.30
10384;DHT22;5238;43.508;4.980;2022-12-11T01:48:36;3.20;91.30
10384;DHT22;5238;43.508;4.980;2022-12-11T01:51:04;3.20;91.30
10384;DHT22;5238;43.508;4.980;2022-12-11T01:53:34;3.20;91.30
10384;DHT22;5238;43.508;4.980;2022-12-11T01:56:13;3.20;91.30
10384;DHT22;5238;43.508;4.980;2022-12-11T01:58:52;3.20;91.30
10384;DHT22;5238;43.508;4.980;2022-12-11T02:01:33;3.20;91.30
10384;DHT22;5238;43.508;4.980;2022-12-11T02:04:05;3.10;91.30
10384;DHT22;5238;43.508;4.980;2022-12-11T02:06:42;3.10;91.30
10384;DHT22;5238;43.508;4.980;2022-12-11T02:09:13;3.10;91.30
10384;DHT22;5238;43.508;4.980;2022-12-11T02:11:57;3.10;91.30
10384;DHT22;5238;43.508;4.980;2022-12-11T02:14:40;3.10;91.30
10384;DHT22;5238;43.508;4.980;2022-12-11T02:17:13;3.00;91.30
10384;DHT22;5238;43.508;4.980;2022-12-11T02:19:52;3.10;91.30
10384;DHT22;5238;43.508;4.980;2022-12-11T02:22:33;3.00;91.30
10384;DHT22;5238;43.508;4.980;2022-12-11T02:25:14;3.00;91.30
10384;DHT22;5238;43.508;4.980;2022-12-11T02:28:04;3.00;91.30
10384;DHT22;5238;43.508;4.980;2022-12-11T02:30:43;3.00;91.30
10384;DHT22;5238;43.508;4.980;2022-12-11T02:33:35;3.00;91.30
10384;DHT22;5238;43.508;4.980;2022-12-11T02:36:08;2.90;91.30
10384;DHT22;5238;43.508;4.980;2022-12-11T02:38:39;2.90;91.30
10384;DHT22;5238;43.508;4.980;2022-12-11T02:41:11;2.90;91.30
10384;DHT22;5238;43.508;4.980;2022-12-11T02:43:46;2.90;91.30
10384;DHT22;5238;43.508;4.980;2022-12-11T02:46:24;2.90;91.30
10384;DHT22;5238;43.508;4.980;2022-12-11T02:48:53;2.90;91.30
10384;DHT22;5238;43.508;4.980;2022-12-11T02:51:27;2.90;91.30
10384;DHT22;5238;43.508;4.980;2022-12-11T02:54:10;2.90;91.30
10384;DHT22;5238;43.508;4.980;2022-12-11T02:56:45;2.90;91.30
10384;DHT22;5238;43.508;4.980;2022-12-11T02:59:19;2.90;91.30
10384;DHT22;5238;43.508;4.980;2022-12-11T03:01:51;2.80;91.30
10384;DHT22;5238;43.508;4.980;2022-12-11T03:04:20;2.80;91.30
10384;DHT22;5238;43.508;4.980;2022-12-11T03:07:01;2.80;91.30
10384;DHT22;5238;43.508;4.980;2022-12-11T03:09:37;2.80;91.30
10384;DHT22;5238;43.508;4.980;2022-12-11T03:12:10;2.80;91.30
10384;DHT22;5238;43.508;4.980;2022-12-11T03:14:47;2.80;91.30
10384;DHT22;5238;43.508;4.980;2022-12-11T03:17:31;2.80;91.30
10384;DHT22;5238;43.508;4.980;2022-12-11T03:20:14;2.80;91.30
10384;DHT22;5238;43.508;4.980;2022-12-11T03:22:56;2.70;91.30
10384;DHT22;5238;43.508;4.980;2022-12-11T03:25:32;2.70;91.30
10384;DHT22;5238;43.508;4.980;2022-12-11T03:28:08;2.70;91.30
10384;DHT22;5238;43.508;4.980;2022-12-11T03:30:57;2.70;91.30
10384;DHT22;5238;43.508;4.980;2022-12-11T03:33:36;2.70;91.30
10384;DHT22;5238;43.508;4.980;2022-12-11T03:36:06;2.70;91.30
10384;DHT22;5238;43.508;4.980;2022-12-11T03:38:46;2.70;91.30
10384;DHT22;5238;43.508;4.980;2022-12-11T03:41:21;2.70;91.30
10384;DHT22;5238;43.508;4.980;2022-12-11T03:43:56;2.70;91.30
10384;DHT22;5238;43.508;4.980;2022-12-11T03:46:29;2.70;91.30
10384;DHT22;5238;43.508;4.980;2022-12-11T03:49:02;2.70;91.30
10384;DHT22;5238;43.508;4.980;2022-12-11T03:51:38;2.70;91.30
10384;DHT22;5238;43.508;4.980;2022-12-11T03:54:16;2.70;91.30
10384;DHT22;5238;43.508;4.980;2022-12-11T03:56:50;2.70;91.30
10384;DHT22;5238;43.508;4.980;2022-12-11T03:59:20;2.70;91.30
10384;DHT22;5238;43.508;4.980;2022-12-11T04:01:52;2.70;91.30
10384;DHT22;5238;43.508;4.980;2022-12-11T04:04:19;2.70;91.30
10384;DHT22;5238;43.508;4.980;2022-12-11T04:06:47;2.70;91.30
10384;DHT22;5238;43.508;4.980;2022-12-11T04:09:14;2.70;91.30
10384;DHT22;5238;43.508;4.980;2022-12-11T04:11:45;2.70;91.30
10384;DHT22;5238;43.508;4.980;2022-12-11T04:14:13;2.70;91.30
10384;DHT22;5238;43.508;4.980;2022-12-11T04:17:01;2.80;91.30
10384;DHT22;5238;43.508;4.980;2022-12-11T04:19:36;2.70;91.30
10384;DHT22;5238;43.508;4.980;2022-12-11T04:22:20;2.80;91.30
10384;DHT22;5238;43.508;4.980;2022-12-11T04:25:10;2.70;91.30
10384;DHT22;5238;43.508;4.980;2022-12-11T04:27:39;2.80;91.30
10384;DHT22;5238;43.508;4.980;2022-12-11T04:30:27;2.70;91.30
10384;DHT22;5238;43.508;4.980;2022-12-11T04:32:57;2.70;91.30
10384;DHT22;5238;43.508;4.980;2022-12-11T04:35:33;2.70;91.30
10384;DHT22;5238;43.508;4.980;2022-12-11T04:38:02;2.70;91.30
10384;DHT22;5238;43.508;4.980;2022-12-11T04:40:30;2.70;91.30
10384;DHT22;5238;43.508;4.980;2022-12-11T04:42:56;2.70;91.30
10384;DHT22;5238;43.508;4.980;2022-12-11T04:45:24;2.70;91.30
10384;DHT22;5238;43.508;4.980;2022-12-11T04:47:51;2.70;91.30
10384;DHT22;5238;43.508;4.980;2022-12-11T04:50:34;2.70;91.30
10384;DHT22;5238;43.508;4.980;2022-12-11T04:53:04;2.70;91.30
10384;DHT22;5238;43.508;4.980;2022-12-11T04:55:49;2.70;91.30
10384;DHT22;5238;43.508;4.980;2022-12-11T04:58:24;2.70;91.30
10384;DHT22;5238;43.508;4.980;2022-12-11T05:00:53;2.70;91.30
10384;DHT22;5238;43.508;4.980;2022-12-11T05:03:21;2.70;91.30
10384;DHT22;5238;43.508;4.980;2022-12-11T05:06:09;2.70;91.30
10384;DHT22;5238;43.508;4.980;2022-12-11T05:08:44;2.70;91.30
10384;DHT22;5238;43.508;4.980;2022-12-11T05:11:14;2.70;91.30
10384;DHT22;5238;43.508;4.980;2022-12-11T05:13:47;2.70;91.30
10384;DHT22;5238;43.508;4.980;2022-12-11T05:16:15;2.70;91.30
10384;DHT22;5238;43.508;4.980;2022-12-11T05:18:44;2.70;91.30
10384;DHT22;5238;43.508;4.980;2022-12-11T05:21:27;2.70;91.30
10384;DHT22;5238;43.508;4.980;2022-12-11T05:24:03;2.70;91.30
10384;DHT22;5238;43.508;4.980;2022-12-11T05:26:35;2.70;91.30
10384;DHT22;5238;43.508;4.980;2022-12-11T05:29:16;2.70;91.30
10384;DHT22;5238;43.508;4.980;2022-12-11T05:31:46;2.70;91.30
10384;DHT22;5238;43.508;4.980;2022-12-11T05:34:27;2.70;91.30
10384;DHT22;5238;43.508;4.980;2022-12-11T05:36:58;2.70;91.30
10384;DHT22;5238;43.508;4.980;2022-12-11T05:39:30;2.70;91.30
10384;DHT22;5238;43.508;4.980;2022-12-11T05:41:58;2.60;91.30
10384;DHT22;5238;43.508;4.980;2022-12-11T05:44:26;2.70;91.30
10384;DHT22;5238;43.508;4.980;2022-12-11T05:46:55;2.60;91.30
10384;DHT22;5238;43.508;4.980;2022-12-11T05:49:36;2.70;91.30
10384;DHT22;5238;43.508;4.980;2022-12-11T05:52:06;2.60;91.30
10384;DHT22;5238;43.508;4.980;2022-12-11T05:54:42;2.60;91.30
10384;DHT22;5238;43.508;4.980;2022-12-11T05:57:10;2.60;91.30
10384;DHT22;5238;43.508;4.980;2022-12-11T05:59:42;2.60;91.30
10384;DHT22;5238;43.508;4.980;2022-12-11T06:02:12;2.60;91.30
10384;DHT22;5238;43.508;4.980;2022-12-11T06:04:41;2.60;91.30
10384;DHT22;5238;43.508;4.980;2022-12-11T06:07:24;2.60;91.30
10384;DHT22;5238;43.508;4.980;2022-12-11T06:09:52;2.60;91.30
10384;DHT22;5238;43.508;4.980;2022-12-11T06:12:22;2.60;91.30
10384;DHT22;5238;43.508;4.980;2022-12-11T06:14:50;2.60;91.30
10384;DHT22;5238;43.508;4.980;2022-12-11T06:17:17;2.60;91.30
10384;DHT22;5238;43.508;4.980;2022-12-11T06:19:44;2.50;91.30
10384;DHT22;5238;43.508;4.980;2022-12-11T06:22:11;2.50;91.30
10384;DHT22;5238;43.508;4.980;2022-12-11T06:24:39;2.50;91.30
10384;DHT22;5238;43.508;4.980;2022-12-11T06:27:06;2.50;91.30
10384;DHT22;5238;43.508;4.980;2022-12-11T06:29:33;2.50;91.30
10384;DHT22;5238;43.508;4.980;2022-12-11T06:32:08;2.50;91.30
10384;DHT22;5238;43.508;4.980;2022-12-11T06:34:35;2.50;91.30
10384;DHT22;5238;43.508;4.980;2022-12-11T06:37:02;2.50;91.30
10384;DHT22;5238;43.508;4.980;2022-12-11T06:39:30;2.50;91.30
10384;DHT22;5238;43.508;4.980;2022-12-11T06:41:58;2.50;91.30
10384;DHT22;5238;43.508;4.980;2022-12-11T06:44:26;2.40;91.30
10384;DHT22;5238;43.508;4.980;2022-12-11T06:46:53;2.40;91.30
10384;DHT22;5238;43.508;4.980;2022-12-11T06:49:20;2.40;91.30
10384;DHT22;5238;43.508;4.980;2022-12-11T06:51:47;2.40;91.30
10384;DHT22;5238;43.508;4.980;2022-12-11T06:54:14;2.40;91.30
10384;DHT22;5238;43.508;4.980;2022-12-11T06:56:41;2.40;91.30
10384;DHT22;5238;43.508;4.980;2022-12-11T06:59:11;2.40;91.30
10384;DHT22;5238;43.508;4.980;2022-12-11T07:01:38;2.40;91.30
10384;DHT22;5238;43.508;4.980;2022-12-11T07:04:05;2.40;91.30
10384;DHT22;5238;43.508;4.980;2022-12-11T07:06:33;2.40;91.30
10384;DHT22;5238;43.508;4.980;2022-12-11T07:09:02;2.40;91.30
10384;DHT22;5238;43.508;4.980;2022-12-11T07:11:29;2.40;91.30
10384;DHT22;5238;43.508;4.980;2022-12-11T07:13:57;2.40;91.30
10384;DHT22;5238;43.508;4.980;2022-12-11T07:16:26;2.40;91.30
10384;DHT22;5238;43.508;4.980;2022-12-11T07:18:54;2.40;91.30
10384;DHT22;5238;43.508;4.980;2022-12-11T07:21:21;2.40;91.30
10384;DHT22;5238;43.508;4.980;2022-12-11T07:23:49;2.40;91.30
10384;DHT22;5238;43.508;4.980;2022-12-11T07:26:18;2.40;91.30
10384;DHT22;5238;43.508;4.980;2022-12-11T07:28:45;2.40;91.30
10384;DHT22;5238;43.508;4.980;2022-12-11T07:31:15;2.40;91.30
10384;DHT22;5238;43.508;4.980;2022-12-11T07:33:44;2.50;91.30
10384;DHT22;5238;43.508;4.980;2022-12-11T07:36:12;2.60;91.30
10384;DHT22;5238;43.508;4.980;2022-12-11T07:38:40;2.70;91.30
10384;DHT22;5238;43.508;4.980;2022-12-11T07:41:10;2.70;91.30
10384;DHT22;5238;43.508;4.980;2022-12-11T07:43:38;2.90;91.30
10384;DHT22;5238;43.508;4.980;2022-12-11T07:46:06;3.00;91.30
10384;DHT22;5238;43.508;4.980;2022-12-11T07:48:34;3.10;91.30
10384;DHT22;5238;43.508;4.980;2022-12-11T07:51:12;3.20;91.30
10384;DHT22;5238;43.508;4.980;2022-12-11T07:53:40;3.20;91.30
10384;DHT22;5238;43.508;4.980;2022-12-11T07:56:07;3.20;91.30
10384;DHT22;5238;43.508;4.980;2022-12-11T07:58:34;3.30;91.30
10384;DHT22;5238;43.508;4.980;2022-12-11T08:01:03;3.30;91.30
10384;DHT22;5238;43.508;4.980;2022-12-11T08:03:30;3.30;91.30
10384;DHT22;5238;43.508;4.980;2022-12-11T08:05:58;3.30;91.30
10384;DHT22;5238;43.508;4.980;2022-12-11T08:08:26;3.40;91.30
10384;DHT22;5238;43.508;4.980;2022-12-11T08:11:00;3.40;91.30
10384;DHT22;5238;43.508;4.980;2022-12-11T08:13:27;3.40;91.30
10384;DHT22;5238;43.508;4.980;2022-12-11T08:15:54;3.40;91.30
10384;DHT22;5238;43.508;4.980;2022-12-11T08:18:22;3.40;91.30
10384;DHT22;5238;43.508;4.980;2022-12-11T08:20:49;3.40;91.30
10384;DHT22;5238;43.508;4.980;2022-12-11T08:23:16;3.40;91.30
10384;DHT22;5238;43.508;4.980;2022-12-11T08:25:44;3.40;91.30
10384;DHT22;5238;43.508;4.980;2022-12-11T08:28:11;3.50;91.30
10384;DHT22;5238;43.508;4.980;2022-12-11T08:30:39;3.60;91.30
10384;DHT22;5238;43.508;4.980;2022-12-11T08:33:06;3.60;91.30
10384;DHT22;5238;43.508;4.980;2022-12-11T08:35:37;3.70;91.30
10384;DHT22;5238;43.508;4.980;2022-12-11T08:38:05;3.80;91.30
10384;DHT22;5238;43.508;4.980;2022-12-11T08:40:32;3.90;91.30
10384;DHT22;5238;43.508;4.980;2022-12-11T08:43:01;4.00;91.30
10384;DHT22;5238;43.508;4.980;2022-12-11T08:45:28;4.00;91.30
10384;DHT22;5238;43.508;4.980;2022-12-11T08:47:56;4.10;91.30
10384;DHT22;5238;43.508;4.980;2022-12-11T08:50:24;4.20;91.30
10384;DHT22;5238;43.508;4.980;2022-12-11T08:52:51;4.30;91.30
10384;DHT22;5238;43.508;4.980;2022-12-11T08:55:19;4.30;91.30
10384;DHT22;5238;43.508;4.980;2022-12-11T08:57:46;4.30;91.30
10384;DHT22;5238;43.508;4.980;2022-12-11T09:00:16;4.30;91.30
10384;DHT22;5238;43.508;4.980;2022-12-11T09:02:43;4.40;91.30
10384;DHT22;5238;43.508;4.980;2022-12-11T09:05:10;4.40;91.30
10384;DHT22;5238;43.508;4.980;2022-12-11T09:07:37;4.40;91.30
10384;DHT22;5238;43.508;4.980;2022-12-11T09:10:05;4.50;91.30
10384;DHT22;5238;43.508;4.980;2022-12-11T09:12:33;4.50;91.30
10384;DHT22;5238;43.508;4.980;2022-12-11T09:15:00;4.50;91.30
10384;DHT22;5238;43.508;4.980;2022-12-11T09:17:29;4.50;91.30
10384;DHT22;5238;43.508;4.980;2022-12-11T09:19:56;4.50;91.30
10384;DHT22;5238;43.508;4.980;2022-12-11T09:22:23;4.50;91.30
10384;DHT22;5238;43.508;4.980;2022-12-11T09:24:50;4.60;91.30
10384;DHT22;5238;43.508;4.980;2022-12-11T09:27:19;4.60;91.30
10384;DHT22;5238;43.508;4.980;2022-12-11T09:29:46;4.70;91.30
10384;DHT22;5238;43.508;4.980;2022-12-11T09:32:14;4.80;91.30
10384;DHT22;5238;43.508;4.980;2022-12-11T09:34:42;4.90;91.30
10384;DHT22;5238;43.508;4.980;2022-12-11T09:37:09;4.90;91.30
10384;DHT22;5238;43.508;4.980;2022-12-11T09:39:36;5.00;91.30
10384;DHT22;5238;43.508;4.980;2022-12-11T09:42:09;5.10;91.30
10384;DHT22;5238;43.508;4.980;2022-12-11T09:44:40;5.10;91.30
10384;DHT22;5238;43.508;4.980;2022-12-11T09:47:20;5.20;91.30
10384;DHT22;5238;43.508;4.980;2022-12-11T09:49:52;5.30;91.30
10384;DHT22;5238;43.508;4.980;2022-12-11T09:52:25;5.30;91.30
10384;DHT22;5238;43.508;4.980;2022-12-11T09:54:58;5.30;91.30
10384;DHT22;5238;43.508;4.980;2022-12-11T09:57:37;5.40;91.30
10384;DHT22;5238;43.508;4.980;2022-12-11T10:00:14;5.40;91.30
10384;DHT22;5238;43.508;4.980;2022-12-11T10:02:59;5.50;91.30
10384;DHT22;5238;43.508;4.980;2022-12-11T10:05:35;5.50;91.30
10384;DHT22;5238;43.508;4.980;2022-12-11T10:08:11;5.50;91.30
10384;DHT22;5238;43.508;4.980;2022-12-11T10:10:42;5.50;91.30
10384;DHT22;5238;43.508;4.980;2022-12-11T10:13:21;5.60;91.30
10384;DHT22;5238;43.508;4.980;2022-12-11T10:15:54;5.60;91.30
10384;DHT22;5238;43.508;4.980;2022-12-11T10:18:25;5.70;91.30
10384;DHT22;5238;43.508;4.980;2022-12-11T10:20:55;5.70;91.30
10384;DHT22;5238;43.508;4.980;2022-12-11T10:23:28;5.80;91.30
10384;DHT22;5238;43.508;4.980;2022-12-11T10:26:05;5.90;91.30
10384;DHT22;5238;43.508;4.980;2022-12-11T10:28:33;5.90;91.30
10384;DHT22;5238;43.508;4.980;2022-12-11T10:31:05;6.00;91.30
10384;DHT22;5238;43.508;4.980;2022-12-11T10:33:48;6.00;91.30
10384;DHT22;5238;43.508;4.980;2022-12-11T10:36:33;6.10;91.30
10384;DHT22;5238;43.508;4.980;2022-12-11T10:39:12;6.10;91.30
10384;DHT22;5238;43.508;4.980;2022-12-11T10:41:47;6.20;91.30
10384;DHT22;5238;43.508;4.980;2022-12-11T10:44:18;6.20;91.30
10384;DHT22;5238;43.508;4.980;2022-12-11T10:46:47;6.20;91.30
10384;DHT22;5238;43.508;4.980;2022-12-11T10:49:27;6.30;91.30
10384;DHT22;5238;43.508;4.980;2022-12-11T10:51:58;6.30;91.30
10384;DHT22;5238;43.508;4.980;2022-12-11T10:54:30;6.30;91.30
10384;DHT22;5238;43.508;4.980;2022-12-11T10:57:01;6.30;91.30
10384;DHT22;5238;43.508;4.980;2022-12-11T10:59:37;6.30;91.30
10384;DHT22;5238;43.508;4.980;2022-12-11T11:02:18;6.30;91.30
10384;DHT22;5238;43.508;4.980;2022-12-11T11:04:47;6.30;91.30
10384;DHT22;5238;43.508;4.980;2022-12-11T11:07:33;6.40;91.30
10384;DHT22;5238;43.508;4.980;2022-12-11T11:10:13;6.40;91.30
10384;DHT22;5238;43.508;4.980;2022-12-11T11:12:42;6.40;91.30
10384;DHT22;5238;43.508;4.980;2022-12-11T11:15:12;6.50;91.30
10384;DHT22;5238;43.508;4.980;2022-12-11T11:17:43;6.60;91.30
10384;DHT22;5238;43.508;4.980;2022-12-11T11:20:17;6.60;91.30
10384;DHT22;5238;43.508;4.980;2022-12-11T11:22:56;6.70;91.30
10384;DHT22;5238;43.508;4.980;2022-12-11T11:25:27;6.70;91.30
10384;DHT22;5238;43.508;4.980;2022-12-11T11:28:00;6.70;91.30
10384;DHT22;5238;43.508;4.980;2022-12-11T11:30:31;6.80;91.30
10384;DHT22;5238;43.508;4.980;2022-12-11T11:33:04;6.80;91.30
10384;DHT22;5238;43.508;4.980;2022-12-11T11:35:52;6.90;91.30
10384;DHT22;5238;43.508;4.980;2022-12-11T11:38:33;6.90;91.30
10384;DHT22;5238;43.508;4.980;2022-12-11T11:41:09;7.00;91.30
10384;DHT22;5238;43.508;4.980;2022-12-11T11:43:43;7.00;91.30
10384;DHT22;5238;43.508;4.980;2022-12-11T11:46:27;7.10;91.30
10384;DHT22;5238;43.508;4.980;2022-12-11T11:49:05;7.10;91.30
10384;DHT22;5238;43.508;4.980;2022-12-11T11:51:38;7.10;91.30
10384;DHT22;5238;43.508;4.980;2022-12-11T11:54:19;7.10;91.30
10384;DHT22;5238;43.508;4.980;2022-12-11T11:56:56;7.10;91.30
10384;DHT22;5238;43.508;4.980;2022-12-11T11:59:30;7.20;91.30
10384;DHT22;5238;43.508;4.980;2022-12-11T12:02:00;7.30;91.30
10384;DHT22;5238;43.508;4.980;2022-12-11T12:04:33;7.40;91.30
10384;DHT22;5238;43.508;4.980;2022-12-11T12:07:17;7.40;91.30
10384;DHT22;5238;43.508;4.980;2022-12-11T12:10:02;7.50;91.30
10384;DHT22;5238;43.508;4.980;2022-12-11T12:12:38;7.60;91.30
10384;DHT22;5238;43.508;4.980;2022-12-11T12:15:20;7.60;91.30
10384;DHT22;5238;43.508;4.980;2022-12-11T12:18:18;7.60;91.30
10384;DHT22;5238;43.508;4.980;2022-12-11T12:21:11;7.70;91.30
10384;DHT22;5238;43.508;4.980;2022-12-11T12:24:01;7.70;91.30
10384;DHT22;5238;43.508;4.980;2022-12-11T12:26:36;7.70;91.30
10384;DHT22;5238;43.508;4.980;2022-12-11T12:29:20;7.70;91.30
10384;DHT22;5238;43.508;4.980;2022-12-11T12:31:59;7.70;91.30
10384;DHT22;5238;43.508;4.980;2022-12-11T12:34:54;7.70;91.30
10384;DHT22;5238;43.508;4.980;2022-12-11T12:37:40;7.70;91.30
10384;DHT22;5238;43.508;4.980;2022-12-11T12:40:19;7.70;91.30
10384;DHT22;5238;43.508;4.980;2022-12-11T12:43:25;7.60;91.30
10384;DHT22;5238;43.508;4.980;2022-12-11T12:46:04;7.60;91.30
10384;DHT22;5238;43.508;4.980;2022-12-11T12:48:44;7.60;91.30
10384;DHT22;5238;43.508;4.980;2022-12-11T12:51:29;7.60;91.30
10384;DHT22;5238;43.508;4.980;2022-12-11T12:54:06;7.60;91.30
10384;DHT22;5238;43.508;4.980;2022-12-11T12:56:37;7.50;91.30
10384;DHT22;5238;43.508;4.980;2022-12-11T12:59:21;7.50;91.30
10384;DHT22;5238;43.508;4.980;2022-12-11T13:01:56;7.50;91.30
10384;DHT22;5238;43.508;4.980;2022-12-11T13:04:38;7.50;91.30
10384;DHT22;5238;43.508;4.980;2022-12-11T13:07:13;7.50;91.30
10384;DHT22;5238;43.508;4.980;2022-12-11T13:09:42;7.50;91.30
10384;DHT22;5238;43.508;4.980;2022-12-11T13:12:20;7.50;91.30
10384;DHT22;5238;43.508;4.980;2022-12-11T13:15:20;7.60;91.30
10384;DHT22;5238;43.508;4.980;2022-12-11T13:17:49;7.80;91.30
10384;DHT22;5238;43.508;4.980;2022-12-11T13:20:21;7.90;91.30
10384;DHT22;5238;43.508;4.980;2022-12-11T13:25:50;8.10;91.30
10384;DHT22;5238;43.508;4.980;2022-12-11T13:28:30;8.10;91.30
10384;DHT22;5238;43.508;4.980;2022-12-11T13:31:18;8.10;91.30
10384;DHT22;5238;43.508;4.980;2022-12-11T13:34:16;8.10;91.30
10384;DHT22;5238;43.508;4.980;2022-12-11T13:36:54;8.10;91.30
10384;DHT22;5238;43.508;4.980;2022-12-11T13:39:33;8.10;91.30
10384;DHT22;5238;43.508;4.980;2022-12-11T13:42:05;8.20;91.30
10384;DHT22;5238;43.508;4.980;2022-12-11T13:44:35;8.20;91.30
10384;DHT22;5238;43.508;4.980;2022-12-11T13:47:09;8.30;91.30
10384;DHT22;5238;43.508;4.980;2022-12-11T13:49:40;8.50;91.30
10384;DHT22;5238;43.508;4.980;2022-12-11T13:52:17;8.60;91.30
10384;DHT22;5238;43.508;4.980;2022-12-11T13:54:48;8.60;91.30
10384;DHT22;5238;43.508;4.980;2022-12-11T13:57:17;8.50;91.30
10384;DHT22;5238;43.508;4.980;2022-12-11T13:59:48;8.60;91.30
10384;DHT22;5238;43.508;4.980;2022-12-11T14:02:22;8.60;91.30
10384;DHT22;5238;43.508;4.980;2022-12-11T14:04:53;8.70;91.30
10384;DHT22;5238;43.508;4.980;2022-12-11T14:07:25;8.70;91.30
10384;DHT22;5238;43.508;4.980;2022-12-11T14:09:57;8.60;91.30
10384;DHT22;5238;43.508;4.980;2022-12-11T14:12:27;8.60;91.30
10384;DHT22;5238;43.508;4.980;2022-12-11T14:14:57;8.60;91.30
10384;DHT22;5238;43.508;4.980;2022-12-11T14:17:29;8.50;91.30
10384;DHT22;5238;43.508;4.980;2022-12-11T14:20:00;8.40;91.30
10384;DHT22;5238;43.508;4.980;2022-12-11T14:22:30;8.30;91.30
10384;DHT22;5238;43.508;4.980;2022-12-11T14:24:59;8.30;91.30
10384;DHT22;5238;43.508;4.980;2022-12-11T14:27:28;8.20;91.30
10384;DHT22;5238;43.508;4.980;2022-12-11T14:29:55;8.20;91.30
10384;DHT22;5238;43.508;4.980;2022-12-11T14:32:29;8.10;91.30
10384;DHT22;5238;43.508;4.980;2022-12-11T14:34:58;8.00;91.30
10384;DHT22;5238;43.508;4.980;2022-12-11T14:37:27;8.00;91.30
10384;DHT22;5238;43.508;4.980;2022-12-11T14:39:57;8.00;91.30
10384;DHT22;5238;43.508;4.980;2022-12-11T14:42:29;8.10;91.30
10384;DHT22;5238;43.508;4.980;2022-12-11T14:45:02;8.10;91.30
10384;DHT22;5238;43.508;4.980;2022-12-11T14:47:42;8.10;91.30
10384;DHT22;5238;43.508;4.980;2022-12-11T14:50:16;8.10;91.30
10384;DHT22;5238;43.508;4.980;2022-12-11T14:52:53;8.10;91.30
10384;DHT22;5238;43.508;4.980;2022-12-11T14:55:34;8.10;91.30
10384;DHT22;5238;43.508;4.980;2022-12-11T14:58:12;8.00;91.30
10384;DHT22;5238;43.508;4.980;2022-12-11T15:00:42;7.90;91.30
10384;DHT22;5238;43.508;4.980;2022-12-11T15:03:22;7.90;91.30
10384;DHT22;5238;43.508;4.980;2022-12-11T15:05:53;7.80;91.30
10384;DHT22;5238;43.508;4.980;2022-12-11T15:08:27;7.90;91.30
10384;DHT22;5238;43.508;4.980;2022-12-11T15:11:02;8.00;91.30
10384;DHT22;5238;43.508;4.980;2022-12-11T15:13:31;8.00;91.30
10384;DHT22;5238;43.508;4.980;2022-12-11T15:16:01;8.10;91.30
10384;DHT22;5238;43.508;4.980;2022-12-11T15:18:33;8.10;91.30
10384;DHT22;5238;43.508;4.980;2022-12-11T15:21:06;8.10;91.30
10384;DHT22;5238;43.508;4.980;2022-12-11T15:23:46;8.10;91.30
10384;DHT22;5238;43.508;4.980;2022-12-11T15:26:15;8.10;91.30
10384;DHT22;5238;43.508;4.980;2022-12-11T15:28:44;8.10;91.30
10384;DHT22;5238;43.508;4.980;2022-12-11T15:31:23;8.10;91.30
10384;DHT22;5238;43.508;4.980;2022-12-11T15:33:56;8.10;91.30
10384;DHT22;5238;43.508;4.980;2022-12-11T15:36:25;8.10;91.30
10384;DHT22;5238;43.508;4.980;2022-12-11T15:38:52;8.20;91.30
10384;DHT22;5238;43.508;4.980;2022-12-11T15:41:20;8.10;91.30
10384;DHT22;5238;43.508;4.980;2022-12-11T15:43:49;8.20;91.30
10384;DHT22;5238;43.508;4.980;2022-12-11T15:46:17;8.10;91.30
10384;DHT22;5238;43.508;4.980;2022-12-11T15:48:51;8.10;91.30
10384;DHT22;5238;43.508;4.980;2022-12-11T15:51:21;7.90;91.30
10384;DHT22;5238;43.508;4.980;2022-12-11T15:53:48;7.80;91.30
10384;DHT22;5238;43.508;4.980;2022-12-11T15:56:16;7.80;91.30
10384;DHT22;5238;43.508;4.980;2022-12-11T15:58:44;7.70;91.30
10384;DHT22;5238;43.508;4.980;2022-12-11T16:01:12;7.60;91.30
10384;DHT22;5238;43.508;4.980;2022-12-11T16:03:40;7.60;91.30
10384;DHT22;5238;43.508;4.980;2022-12-11T16:06:15;7.40;91.30
10384;DHT22;5238;43.508;4.980;2022-12-11T16:08:44;7.20;91.30
10384;DHT22;5238;43.508;4.980;2022-12-11T16:11:12;7.00;91.30
10384;DHT22;5238;43.508;4.980;2022-12-11T16:13:40;6.90;91.30
10384;DHT22;5238;43.508;4.980;2022-12-11T16:16:07;6.70;91.30
10384;DHT22;5238;43.508;4.980;2022-12-11T16:18:37;6.60;91.30
10384;DHT22;5238;43.508;4.980;2022-12-11T16:21:05;6.50;91.30
10384;DHT22;5238;43.508;4.980;2022-12-11T16:23:32;6.30;91.30
10384;DHT22;5238;43.508;4.980;2022-12-11T16:26:05;6.20;91.30
10384;DHT22;5238;43.508;4.980;2022-12-11T16:28:34;6.00;91.30
10384;DHT22;5238;43.508;4.980;2022-12-11T16:31:01;5.90;91.30
10384;DHT22;5238;43.508;4.980;2022-12-11T16:33:29;5.80;91.30
10384;DHT22;5238;43.508;4.980;2022-12-11T16:35:57;5.80;91.30
10384;DHT22;5238;43.508;4.980;2022-12-11T16:38:25;5.70;91.30
10384;DHT22;5238;43.508;4.980;2022-12-11T16:40:59;5.60;91.30
10384;DHT22;5238;43.508;4.980;2022-12-11T16:43:27;5.50;91.30